Tempe, Arizona
Current Conditions -  °F | °C
As of 6:51 AM on Saturday 25 Oct 2014 (Local Time) from KPHX Reporting Station
Scattered Clouds Scattered Clouds  
Wind Chill: 74°   Ceiling: Unl
Heat Index: 74°   Visibility: 10mi
Dew Point: 48°   Wind: 12mph
Humidity: 40%   Direction: 90°E
Pressure: 29.98"   Gusts: NA
Location:  33.43°N, 111.93°W
Report Text: KPHX 251351Z 09010KT 10SM SCT200 23/09 A2998 RMK AO2 SLP137 T02330089
Loading
Personal Weather Stations






























Interactive Weather Map
Tropical Storm Tracking
New forecast layout! Learn more

10-Day Weather Forecast

Advertisements
Track Severe Weather on mobile